KLSV

Nellis AFB Airport

Las Vegas, Nevada, USA
METAR KLSV 230458Z 04003KT 10SM CLR 18/10 A2996 RMK AO2A SLPNO ALSTG ESTMD T01820095 $
Observed Flight Rules
Oct-23 @ 04:58 UTC (48 minutes ago) Visual Flight Rules
Wind Visibility Clouds
40° at 3 knots 10 miles
  • Clear skies
Temperatures Readings
Current 18°C / 64°F
Dewpoint 10°C / 50°F
Humidity 60%
Altimeter 29.96" Hg
Pressure 1015 hPa
Elevation 570
METAR KLSV 230458Z 04003KT 10SM CLR 18/10 A2996 RMK AO2A SLPNO ALSTG ESTMD T01820095 $
Observed Flight Rules
Oct-23 @ 04:58 UTC
(48 minutes ago)
VFR
Wind Visibility
40° at 3 knots 10 miles
Clouds
  • Clear skies
Temperature Dewpoint
18°C / 64°F 10°C / 50°F
Humidity Altimeter Pressure
60% 29.96" Hg 1015 hPa